Aviation Digital Data Service (ADDS)

Output produced by METARs form (2037 UTC 31 January 2023)
found at http://www.aviationweather.gov/metar/data/
 
METAR text: KSNA 311953Z 35008KT 10SM CLR 18/M08 A3008 RMK AO2 SLP185 T01831083
Conditions at: KSNA (COSTA MESA , CA, US) observed 1953 UTC 31 January 2023
Temperature: 18.3°C (65°F)
Dewpoint: -8.3°C (17°F) [RH = 16%]
Pressure (altimeter): 30.08 inches Hg (1018.7 mb)
[Sea-level pressure: 1018.5 mb]
Winds: from the N (350 degrees) at 9 MPH (8 knots; 4.1 m/s)
Visibility: 10 or more miles (16+ km)
Ceiling: at least 12,000 feet AGL
Clouds: sky clear below 12,000 feet AGL
Weather: no significant weather observed at this time

METAR text: KSNA 311853Z 05011KT 10SM CLR 17/M10 A3010 RMK AO2 SLP194 T01721100
Conditions at: KSNA (COSTA MESA , CA, US) observed 1853 UTC 31 January 2023
Temperature: 17.2°C (63°F)
Dewpoint: -10.0°C (14°F) [RH = 15%]
Pressure (altimeter): 30.10 inches Hg (1019.4 mb)
[Sea-level pressure: 1019.4 mb]
Winds: from the NE (50 degrees) at 13 MPH (11 knots; 5.7 m/s)
Visibility: 10 or more miles (16+ km)
Ceiling: at least 12,000 feet AGL
Clouds: sky clear below 12,000 feet AGL
Weather: no significant weather observed at this time

Forecast for: KSNA (COSTA MESA , CA, US)
Text: KSNA 311757Z 3118/0118 05015G25KT P6SM SKC
Forecast period: 1800 UTC 31 January 2023 to 0100 UTC 01 February 2023
Forecast type: FROM: standard forecast or significant change
Winds: from the NE (50 degrees) at 17 MPH (15 knots; 7.7 m/s)
gusting to 29 MPH (25 knots; 12.9 m/s)
Visibility: 6 or more miles (10+ km)
Clouds: clear skies
Weather: no significant weather forecast for this period
Text: FM010100 06008KT P6SM SKC
Forecast period: 0100 to 0600 UTC 01 February 2023
Forecast type: FROM: standard forecast or significant change
Winds: from the ENE (60 degrees) at 9 MPH (8 knots; 4.1 m/s)
Visibility: 6 or more miles (10+ km)
Clouds: clear skies
Weather: no significant weather forecast for this period
Text: FM010600 VRB04KT P6SM SKC
Forecast period: 0600 to 1800 UTC 01 February 2023
Forecast type: FROM: standard forecast or significant change
Winds: variable direction winds at 5 MPH (4 knots; 2.1 m/s)
Visibility: 6 or more miles (10+ km)
Clouds: clear skies
Weather: no significant weather forecast for this period